Time;durP1;ratioP1;P1;durP2;ratioP2;P2;SDS_P1;SDS_P2;PMS_P1;PMS_P2;Temp;Humidity;BMP_temperature;BMP_pressure;BME280_temperature;BME280_humidity;BME280_pressure;Samples;Min_cycle;Max_cycle;Signal;HPM_P1;HPM_P2
2021/03/22 00:00:11;;;;;;;;;;;;;;;21.18;25.38;97077.09;5059748;28;928;-74
2021/03/22 00:02:37;;;;;;;;;;;;;;;21.59;24.51;97078.72;5059711;28;1025;-75
2021/03/22 00:05:03;;;;;;;;;;;;;;;20.86;25.86;97094.53;5042428;28;818;-75
2021/03/22 00:07:28;;;;;;;;;;;;;;;21.04;25.51;97095.44;5060587;28;722;-74
2021/03/22 00:09:53;;;;;;;;;;;;;;;21.05;25.29;97096.22;5059799;28;1965;-74
2021/03/22 00:12:19;;;;;;;;;;;;;;;20.81;25.82;97093.09;5059397;28;1074;-74
2021/03/22 00:14:44;;;;;;;;;;;;;;;21.18;25.18;97087.63;5059489;28;889;-73
2021/03/22 00:17:10;;;;;;;;;;;;;;;20.90;26.21;97075.41;5059656;28;822;-74
2021/03/22 00:19:35;;;;;;;;;;;;;;;22.23;24.47;97080.91;5059529;28;663;-73
2021/03/22 00:22:01;;;;;;;;;;;;;;;22.31;23.95;97081.38;5060128;28;683;-73
2021/03/22 00:24:26;;;;;;;;;;;;;;;22.32;24.08;97060.28;5059532;28;814;-74
2021/03/22 00:26:51;;;;;;;;;;;;;;;22.31;24.07;97059.50;5041724;28;834;-74
2021/03/22 00:29:17;;;;;;;;;;;;;;;22.34;23.87;97058.56;5059139;28;1987;-74
2021/03/22 00:31:42;;;;;;;;;;;;;;;22.35;24.02;97051.63;5059399;28;865;-74
2021/03/22 00:34:08;;;;;;;;;;;;;;;22.34;23.91;97040.78;5059546;28;653;-74
2021/03/22 00:36:33;;;;;;;;;;;;;;;22.38;23.70;97043.41;5060085;28;701;-74
2021/03/22 00:38:59;;;;;;;;;;;;;;;22.21;23.64;97049.41;5059799;28;650;-74
2021/03/22 00:41:24;;;;;;;;;;;;;;;21.61;24.48;97054.84;5059230;28;882;-74
2021/03/22 00:43:50;;;;;;;;;;;;;;;21.41;24.84;97046.75;5060267;28;846;-74
2021/03/22 00:46:15;;;;;;;;;;;;;;;22.02;24.23;97030.78;5063763;28;1085;-74
2021/03/22 00:48:41;;;;;;;;;;;;;;;22.30;23.48;97018.25;5063198;28;1897;-74
2021/03/22 00:51:07;;;;;;;;;;;;;;;22.40;23.45;97012.56;5063937;28;654;-75
2021/03/22 00:53:33;;;;;;;;;;;;;;;22.32;23.30;97010.03;5063205;28;661;-74
2021/03/22 00:55:58;;;;;;;;;;;;;;;22.50;23.09;96999.97;5063402;28;906;-73
2021/03/22 00:58:23;;;;;;;;;;;;;;;22.47;23.10;96998.06;5062682;28;923;-75
2021/03/22 01:00:50;;;;;;;;;;;;;;;21.97;23.67;96988.97;5063457;28;950;-73
2021/03/22 01:03:18;;;;;;;;;;;;;;;21.71;23.91;96988.44;5063302;28;630;-73
2021/03/22 01:05:43;;;;;;;;;;;;;;;21.45;24.61;96977.44;5045905;28;1248;-74
2021/03/22 01:08:09;;;;;;;;;;;;;;;22.17;23.44;96960.94;5062872;28;1898;-74
2021/03/22 01:10:39;;;;;;;;;;;;;;;22.32;23.22;96953.38;5063020;28;1004;-74
2021/03/22 01:13:22;;;;;;;;;;;;;;;22.42;23.01;96950.53;5062693;28;930;-74
2021/03/22 01:15:47;;;;;;;;;;;;;;;22.36;23.38;96948.31;5062877;28;648;-74
2021/03/22 01:18:13;;;;;;;;;;;;;;;22.50;23.02;96929.88;5062660;28;686;-74
2021/03/22 01:20:47;;;;;;;;;;;;;;;22.44;23.09;96920.44;5062735;28;702;-74
2021/03/22 01:23:12;;;;;;;;;;;;;;;22.58;22.74;96910.47;5062636;28;654;-74
2021/03/22 01:25:38;;;;;;;;;;;;;;;22.44;23.11;96902.66;5062374;28;1023;-74
2021/03/22 01:28:04;;;;;;;;;;;;;;;21.85;23.56;96891.56;5062198;28;1890;-74
2021/03/22 01:30:36;;;;;;;;;;;;;;;21.75;24.16;96887.16;5062482;28;849;-73
2021/03/22 01:33:04;;;;;;;;;;;;;;;21.73;23.83;96879.16;5062396;28;638;-74
2021/03/22 01:35:30;;;;;;;;;;;;;;;21.66;24.13;96868.16;5045780;28;611;-73
2021/03/22 01:37:55;;;;;;;;;;;;;;;21.64;23.85;96862.16;5062423;28;663;-74
2021/03/22 01:40:33;;;;;;;;;;;;;;;21.55;23.96;96857.31;5062010;28;897;-75
2021/03/22 01:43:04;;;;;;;;;;;;;;;21.40;24.40;96844.25;5062291;28;931;-74
2021/03/22 01:45:30;;;;;;;;;;;;;;;21.54;24.54;96837.94;5062417;28;591;-75
2021/03/22 01:47:55;;;;;;;;;;;;;;;21.84;24.86;96839.81;5062381;28;670;-74
2021/03/22 01:50:28;;;;;;;;;;;;;;;22.27;24.48;96842.72;5062264;28;1902;-74
2021/03/22 01:52:53;;;;;;;;;;;;;;;21.84;24.98;96828.47;5062036;28;774;-73
2021/03/22 01:55:19;;;;;;;;;;;;;;;21.69;25.06;96821.13;5044125;28;871;-74
2021/03/22 01:57:45;;;;;;;;;;;;;;;21.30;25.81;96813.13;5061776;28;891;-73
2021/03/22 02:00:27;;;;;;;;;;;;;;;21.47;25.74;96807.16;5062205;28;912;-74
2021/03/22 02:03:03;;;;;;;;;;;;;;;21.31;25.78;96814.69;5045084;28;634;-74
2021/03/22 02:05:29;;;;;;;;;;;;;;;21.23;25.79;96806.97;5061888;28;694;-74
2021/03/22 02:08:04;;;;;;;;;;;;;;;20.86;26.44;96811.81;5061463;28;948;-73
2021/03/22 02:10:30;;;;;;;;;;;;;;;20.60;26.75;96809.22;5044275;28;1079;-74
2021/03/22 02:12:55;;;;;;;;;;;;;;;21.46;25.28;96791.44;5061389;28;808;-74
2021/03/22 02:15:21;;;;;;;;;;;;;;;21.30;25.34;96784.06;5061697;28;630;-74
2021/03/22 02:18:04;;;;;;;;;;;;;;;20.58;26.70;96783.50;5044682;28;603;-74
2021/03/22 02:20:35;;;;;;;;;;;;;;;20.97;26.02;96772.53;5044736;28;743;-74
2021/03/22 02:23:18;;;;;;;;;;;;;;;21.37;25.48;96765.97;5061899;28;642;-74
2021/03/22 02:25:57;;;;;;;;;;;;;;;21.17;25.82;96760.75;5044093;28;911;-74
2021/03/22 02:28:26;;;;;;;;;;;;;;;20.73;26.30;96759.03;5043706;28;1902;-74
2021/03/22 02:30:57;;;;;;;;;;;;;;;21.46;25.13;96780.13;5061509;28;699;-74
2021/03/22 02:33:41;;;;;;;;;;;;;;;20.51;26.32;96764.78;5061222;28;651;-74
2021/03/22 02:36:07;;;;;;;;;;;;;;;21.41;25.02;96752.44;5061258;28;686;-74
2021/03/22 02:38:36;;;;;;;;;;;;;;;21.62;25.29;96747.84;5044079;28;663;-74
2021/03/22 02:41:02;;;;;;;;;;;;;;;22.50;23.99;96765.47;5043599;28;975;-73
2021/03/22 02:43:31;;;;;;;;;;;;;;;22.28;24.20;96754.41;5060687;28;884;-74
2021/03/22 02:45:57;;;;;;;;;;;;;;;22.48;23.69;96756.63;5061183;28;1109;-74
2021/03/22 02:48:26;;;;;;;;;;;;;;;22.51;23.83;96763.41;5061220;28;1922;-74
2021/03/22 02:50:52;;;;;;;;;;;;;;;21.62;24.66;96737.31;5060887;28;654;-74
2021/03/22 02:53:19;;;;;;;;;;;;;;;21.75;24.64;96735.06;5043676;28;713;-74
2021/03/22 02:56:04;;;;;;;;;;;;;;;21.75;25.22;96729.41;5043650;28;866;-74
2021/03/22 02:58:40;;;;;;;;;;;;;;;22.38;24.03;96723.94;5060278;28;840;-75
2021/03/22 03:01:07;;;;;;;;;;;;;;;22.61;23.78;96711.84;5043645;28;662;-74
2021/03/22 03:03:33;;;;;;;;;;;;;;;22.53;23.92;96707.78;5043793;28;874;-74
2021/03/22 03:05:58;;;;;;;;;;;;;;;22.49;23.61;96726.28;5043208;28;595;-74
2021/03/22 03:08:25;;;;;;;;;;;;;;;22.12;24.05;96723.59;5060175;28;1894;-74
2021/03/22 03:10:51;;;;;;;;;;;;;;;21.91;24.04;96725.41;5060354;28;892;-74
2021/03/22 03:13:16;;;;;;;;;;;;;;;21.54;25.01;96708.53;5060095;28;871;-74
2021/03/22 03:15:42;;;;;;;;;;;;;;;22.01;24.41;96709.16;5060715;28;853;-74
2021/03/22 03:18:07;;;;;;;;;;;;;;;22.18;23.97;96699.06;5060322;28;717;-74
2021/03/22 03:20:33;;;;;;;;;;;;;;;22.43;23.61;96697.00;5060761;28;790;-74
2021/03/22 03:22:58;;;;;;;;;;;;;;;22.47;23.80;96697.59;5060554;28;646;-74
2021/03/22 03:25:24;;;;;;;;;;;;;;;22.52;23.45;96694.91;5059938;28;847;-74
2021/03/22 03:27:50;;;;;;;;;;;;;;;22.35;23.71;96680.38;5059962;28;870;-74
2021/03/22 03:30:19;;;;;;;;;;;;;;;21.95;23.89;96686.38;5060353;28;1976;-73
2021/03/22 03:32:45;;;;;;;;;;;;;;;21.87;24.08;96684.38;5060197;28;634;-74
2021/03/22 03:35:11;;;;;;;;;;;;;;;21.83;24.47;96684.56;5060157;28;674;-74
2021/03/22 03:37:36;;;;;;;;;;;;;;;21.62;24.58;96666.53;5060394;28;643;-74
2021/03/22 03:40:05;;;;;;;;;;;;;;;21.64;24.67;96663.22;5060047;28;913;-74
2021/03/22 03:42:30;;;;;;;;;;;;;;;21.76;24.75;96668.69;5059962;28;893;-74
2021/03/22 03:44:56;;;;;;;;;;;;;;;21.96;24.42;96675.81;5060238;28;890;-74
2021/03/22 03:47:21;;;;;;;;;;;;;;;21.20;25.69;96672.13;5059916;28;627;-74
2021/03/22 03:49:47;;;;;;;;;;;;;;;21.57;25.17;96672.84;5059724;28;1964;-74
2021/03/22 03:52:12;;;;;;;;;;;;;;;21.50;25.16;96664.69;5060214;28;679;-74
2021/03/22 03:54:37;;;;;;;;;;;;;;;21.33;25.51;96670.72;5059880;28;865;-74
2021/03/22 03:57:03;;;;;;;;;;;;;;;21.39;25.02;96672.91;5059564;28;821;-74
2021/03/22 03:59:29;;;;;;;;;;;;;;;21.50;25.13;96668.31;5042313;28;1369;-74
2021/03/22 04:01:54;;;;;;;;;;;;;;;21.51;25.31;96669.88;5059855;28;611;-73
2021/03/22 04:04:20;;;;;;;;;;;;;;;21.30;25.33;96683.00;5059802;28;696;-74
2021/03/22 04:06:45;;;;;;;;;;;;;;;21.87;24.59;96673.06;5059759;28;650;-74
2021/03/22 04:09:12;;;;;;;;;;;;;;;22.04;24.10;96662.91;5059153;28;1957;-75
2021/03/22 04:11:44;;;;;;;;;;;;;;;22.23;23.88;96664.41;5059400;28;920;-74
2021/03/22 04:14:16;;;;;;;;;;;;;;;22.31;23.74;96674.09;5059886;28;949;-74
2021/03/22 04:16:41;;;;;;;;;;;;;;;22.34;23.67;96661.81;5042539;28;1136;-74
2021/03/22 04:19:06;;;;;;;;;;;;;;;22.45;23.51;96663.31;5063622;28;880;-74
2021/03/22 04:21:32;;;;;;;;;;;;;;;22.47;23.54;96652.25;5064042;28;686;-74
2021/03/22 04:23:58;;;;;;;;;;;;;;;22.50;23.54;96651.31;5063295;28;1066;-74
2021/03/22 04:26:23;;;;;;;;;;;;;;;21.97;24.27;96643.44;5063830;28;880;-73
2021/03/22 04:28:49;;;;;;;;;;;;;;;21.80;24.51;96657.19;5063483;28;1984;-74
2021/03/22 04:31:15;;;;;;;;;;;;;;;21.58;25.11;96649.72;5063597;28;591;-74
2021/03/22 04:33:56;;;;;;;;;;;;;;;22.09;24.38;96651.69;5063438;28;590;-74
2021/03/22 04:36:23;;;;;;;;;;;;;;;22.35;23.75;96646.34;5063462;28;590;-74
2021/03/22 04:38:48;;;;;;;;;;;;;;;22.46;23.71;96657.16;5063092;28;881;-74
2021/03/22 04:41:14;;;;;;;;;;;;;;;22.42;23.75;96650.09;5045690;28;875;-74
2021/03/22 04:43:39;;;;;;;;;;;;;;;22.56;23.38;96655.03;5063309;28;854;-74
2021/03/22 04:46:05;;;;;;;;;;;;;;;22.43;23.77;96648.81;5063510;28;615;-74
2021/03/22 04:48:30;;;;;;;;;;;;;;;21.93;24.02;96645.66;5063308;28;1902;-74
2021/03/22 04:50:56;;;;;;;;;;;;;;;21.67;24.48;96648.91;5063550;28;705;-74
2021/03/22 04:53:21;;;;;;;;;;;;;;;21.73;24.71;96658.31;5062880;28;1013;-74
2021/03/22 04:55:47;;;;;;;;;;;;;;;22.18;24.29;96648.06;5063535;28;857;-74
2021/03/22 04:58:12;;;;;;;;;;;;;;;22.90;23.48;96644.38;5062856;28;971;-74
2021/03/22 05:00:42;;;;;;;;;;;;;;;22.38;23.51;96638.16;5063133;28;686;-74
2021/03/22 05:03:08;;;;;;;;;;;;;;;21.93;23.98;96637.16;5063349;28;698;-74
2021/03/22 05:05:33;;;;;;;;;;;;;;;21.59;24.51;96642.78;5062848;28;1046;-73
2021/03/22 05:07:59;;;;;;;;;;;;;;;21.89;24.86;96633.72;5062799;28;985;-74
2021/03/22 05:10:26;;;;;;;;;;;;;;;21.87;24.69;96633.41;5045713;28;2000;-74
2021/03/22 05:12:52;;;;;;;;;;;;;;;22.70;23.20;96637.28;5063181;28;615;-74
2021/03/22 05:15:17;;;;;;;;;;;;;;;22.20;24.04;96628.50;5063505;28;595;-74
2021/03/22 05:17:43;;;;;;;;;;;;;;;21.81;24.28;96630.44;5062960;28;670;-74
2021/03/22 05:20:10;;;;;;;;;;;;;;;21.94;24.15;96627.38;5062419;28;842;-74
2021/03/22 05:22:35;;;;;;;;;;;;;;;22.00;24.56;96625.47;5062363;28;865;-74
2021/03/22 05:25:01;;;;;;;;;;;;;;;22.31;24.06;96617.41;5062747;28;910;-74
2021/03/22 05:27:26;;;;;;;;;;;;;;;22.44;23.94;96608.69;5062818;28;646;-74
2021/03/22 05:29:52;;;;;;;;;;;;;;;22.51;23.68;96610.34;5061702;28;1898;-74
2021/03/22 05:32:27;;;;;;;;;;;;;;;22.50;23.45;96614.47;5062229;28;881;-74
2021/03/22 05:34:53;;;;;;;;;;;;;;;22.31;23.54;96611.75;5062035;28;833;-74
2021/03/22 05:37:18;;;;;;;;;;;;;;;21.81;24.13;96597.25;5062746;28;595;-74
2021/03/22 05:39:43;;;;;;;;;;;;;;;21.56;24.29;96589.22;5062281;28;674;-73
2021/03/22 05:42:18;;;;;;;;;;;;;;;21.63;24.73;96586.03;5062534;28;669;-74
2021/03/22 05:45:00;;;;;;;;;;;;;;;22.14;24.02;96596.47;5045144;28;622;-74
2021/03/22 05:47:28;;;;;;;;;;;;;;;22.33;23.44;96600.72;5062088;28;959;-74
2021/03/22 05:50:03;;;;;;;;;;;;;;;22.43;23.47;96594.97;5062067;28;1902;-75
2021/03/22 05:52:47;;;;;;;;;;;;;;;22.50;23.15;96595.41;5062271;28;686;-74
2021/03/22 05:55:48;;;;;;;;;;;;;;;22.55;23.12;96602.44;5062183;28;742;-75
2021/03/22 05:58:19;;;;;;;;;;;;;;;22.18;23.42;96605.56;4981614;28;1276;-73
2021/03/22 06:00:54;;;;;;;;;;;;;;;21.75;24.11;96616.16;5048686;28;1035;-74
2021/03/22 06:03:23;;;;;;;;;;;;;;;21.79;23.92;96608.28;5044656;28;653;-74
2021/03/22 06:05:50;;;;;;;;;;;;;;;21.85;24.79;96591.41;5044864;28;717;-75
2021/03/22 06:08:31;;;;;;;;;;;;;;;22.72;23.49;96597.88;5043997;28;1905;-74
2021/03/22 06:10:57;;;;;;;;;;;;;;;22.52;23.87;96597.72;5061858;28;975;-74
2021/03/22 06:13:25;;;;;;;;;;;;;;;22.05;24.05;96591.59;5061993;28;686;-74
2021/03/22 06:16:04;;;;;;;;;;;;;;;21.72;24.52;96583.16;5062017;28;821;-75
2021/03/22 06:18:30;;;;;;;;;;;;;;;21.71;24.86;96589.28;5043921;28;867;-74
2021/03/22 06:20:56;;;;;;;;;;;;;;;22.49;24.02;96595.88;5061830;28;650;-74
2021/03/22 06:23:40;;;;;;;;;;;;;;;22.73;23.39;96599.44;5061354;28;827;-74
2021/03/22 06:26:24;;;;;;;;;;;;;;;22.52;23.78;96606.25;5061321;28;908;-75
2021/03/22 06:28:53;;;;;;;;;;;;;;;21.93;24.25;96594.69;5061333;28;1914;-74
2021/03/22 06:31:19;;;;;;;;;;;;;;;22.13;23.94;96594.13;5044684;28;649;-74
2021/03/22 06:33:52;;;;;;;;;;;;;;;21.42;25.07;96599.16;5061505;28;655;-74
2021/03/22 06:36:19;;;;;;;;;;;;;;;21.83;24.50;96597.56;5044241;28;678;-75
2021/03/22 06:38:45;;;;;;;;;;;;;;;21.62;25.13;96590.13;5060991;28;963;-74
2021/03/22 06:41:29;;;;;;;;;;;;;;;21.67;24.91;96597.97;5060117;28;828;-74
2021/03/22 06:43:55;;;;;;;;;;;;;;;21.87;24.48;96596.59;5061208;28;607;-73
2021/03/22 06:46:21;;;;;;;;;;;;;;;22.09;24.01;96588.59;5061429;28;678;-74
2021/03/22 06:48:58;;;;;;;;;;;;;;;22.62;23.81;96590.72;5061322;28;1973;-74
2021/03/22 06:51:24;;;;;;;;;;;;;;;22.74;23.51;96569.84;5061445;28;702;-74
2021/03/22 06:53:50;;;;;;;;;;;;;;;21.97;24.30;96564.91;5061277;28;964;-75
2021/03/22 06:56:20;;;;;;;;;;;;;;;21.77;24.54;96562.69;5027177;28;835;-74
2021/03/22 06:58:46;;;;;;;;;;;;;;;21.88;24.67;96567.81;5061196;28;658;-74
2021/03/22 07:01:26;;;;;;;;;;;;;;;22.18;24.22;96574.41;5061203;28;638;-73
2021/03/22 07:03:52;;;;;;;;;;;;;;;22.43;23.92;96564.56;5060755;28;658;-74
2021/03/22 07:06:18;;;;;;;;;;;;;;;22.73;23.33;96551.22;5044285;28;687;-75
2021/03/22 07:08:44;;;;;;;;;;;;;;;22.47;23.75;96547.38;5060310;28;1898;-75
2021/03/22 07:11:18;;;;;;;;;;;;;;;22.20;24.04;96545.56;5060989;28;899;-74
2021/03/22 07:13:57;;;;;;;;;;;;;;;22.05;23.98;96539.84;5060597;28;833;-75
2021/03/22 07:16:24;;;;;;;;;;;;;;;21.83;24.46;96538.09;5061065;28;699;-74
2021/03/22 07:19:09;;;;;;;;;;;;;;;21.77;24.70;96540.03;5060913;28;697;-74
2021/03/22 07:21:44;;;;;;;;;;;;;;;21.79;24.51;96537.47;5046958;28;1368;-75
2021/03/22 07:24:19;;;;;;;;;;;;;;;21.74;24.85;96532.47;5060627;28;654;-74
2021/03/22 07:26:57;;;;;;;;;;;;;;;22.22;24.07;96540.97;5060718;28;750;-74
2021/03/22 07:29:31;;;;;;;;;;;;;;;22.37;23.77;96535.34;5060000;28;1910;-75
2021/03/22 07:31:57;;;;;;;;;;;;;;;22.58;23.72;96534.19;5042414;28;950;-75
2021/03/22 07:34:36;;;;;;;;;;;;;;;22.08;24.14;96536.03;5060547;28;667;-75
2021/03/22 07:37:09;;;;;;;;;;;;;;;21.57;25.04;96537.00;5043634;28;611;-75
2021/03/22 07:39:34;;;;;;;;;;;;;;;21.72;24.47;96543.50;5043247;28;696;-74
2021/03/22 07:42:03;;;;;;;;;;;;;;;22.03;24.38;96540.31;5060859;28;627;-75
2021/03/22 07:44:28;;;;;;;;;;;;;;;22.35;24.10;96529.41;5060001;28;1007;-75
2021/03/22 07:47:12;;;;;;;;;;;;;;;22.60;23.46;96542.25;5060224;28;969;-74
2021/03/22 07:49:41;;;;;;;;;;;;;;;22.24;23.81;96544.13;5059990;28;1902;-73
2021/03/22 07:52:09;;;;;;;;;;;;;;;21.90;24.29;96551.09;5042404;28;619;-74
2021/03/22 07:54:53;;;;;;;;;;;;;;;21.61;24.46;96553.81;5059987;28;587;-74
2021/03/22 07:57:22;;;;;;;;;;;;;;;22.03;24.53;96550.88;5060014;28;669;-73
2021/03/22 08:00:05;;;;;;;;;;;;;;;22.36;23.58;96560.06;5059655;28;862;-73
2021/03/22 08:02:50;;;;;;;;;;;;;;;22.58;23.69;96544.75;5042652;28;863;-73
2021/03/22 08:05:19;;;;;;;;;;;;;;;22.15;24.12;96535.69;5059860;28;725;-74
2021/03/22 08:08:03;;;;;;;;;;;;;;;21.46;24.94;96531.09;5059762;28;666;-74
2021/03/22 08:10:35;;;;;;;;;;;;;;;21.53;24.82;96531.50;5060072;28;1926;-74
2021/03/22 08:13:06;;;;;;;;;;;;;;;21.92;24.24;96522.31;5042618;28;625;-74
2021/03/22 08:15:50;;;;;;;;;;;;;;;21.66;24.55;96533.31;5042585;28;970;-74
2021/03/22 08:18:25;;;;;;;;;;;;;;;21.95;24.44;96544.78;5041677;28;1235;-75
2021/03/22 08:21:00;;;;;;;;;;;;;;;22.33;23.70;96546.88;5060169;28;865;-74
2021/03/22 08:23:29;;;;;;;;;;;;;;;22.43;23.69;96538.28;5059978;28;674;-75
2021/03/22 08:25:55;;;;;;;;;;;;;;;22.52;23.21;96535.38;5043068;28;693;-74
2021/03/22 08:28:32;;;;;;;;;;;;;;;22.18;23.85;96545.28;5041950;28;1898;-75
2021/03/22 08:31:10;;;;;;;;;;;;;;;21.31;24.76;96543.09;5059921;28;623;-74
2021/03/22 08:33:48;;;;;;;;;;;;;;;22.03;24.37;96539.53;5059549;28;937;-74
2021/03/22 08:36:26;;;;;;;;;;;;;;;22.31;23.63;96532.41;5042190;28;969;-74
2021/03/22 08:38:53;;;;;;;;;;;;;;;22.56;23.43;96535.97;5059889;28;587;-74
2021/03/22 08:41:29;;;;;;;;;;;;;;;22.65;23.28;96521.72;5041552;28;974;-74
2021/03/22 08:43:56;;;;;;;;;;;;;;;22.50;23.21;96520.91;5042799;28;703;-74
2021/03/22 08:46:38;;;;;;;;;;;;;;;21.98;24.01;96511.88;5042516;28;632;-74
2021/03/22 08:49:13;;;;;;;;;;;;;;;21.75;24.36;96525.56;5042168;28;1973;-75
2021/03/22 08:51:38;;;;;;;;;;;;;;;22.03;24.20;96523.31;5042193;28;936;-74
2021/03/22 08:54:05;;;;;;;;;;;;;;;21.47;25.10;96524.16;5041888;28;905;-75
2021/03/22 08:56:30;;;;;;;;;;;;;;;21.97;24.19;96518.81;5042786;28;1344;-75
2021/03/22 08:58:58;;;;;;;;;;;;;;;21.77;24.35;96528.69;5059685;28;622;-74
2021/03/22 09:01:35;;;;;;;;;;;;;;;21.69;24.32;96516.16;5042498;28;670;-74
2021/03/22 09:04:13;;;;;;;;;;;;;;;21.60;24.69;96516.22;5059373;28;982;-75
2021/03/22 09:06:55;;;;;;;;;;;;;;;22.18;23.88;96511.28;5063039;28;851;-75
2021/03/22 09:09:21;;;;;;;;;;;;;;;22.54;23.28;96510.19;5062833;28;1907;-75
2021/03/22 09:11:48;;;;;;;;;;;;;;;22.57;23.40;96506.34;5045951;28;716;-74
2021/03/22 09:14:25;;;;;;;;;;;;;;;22.28;23.45;96510.72;5063092;28;661;-74
2021/03/22 09:16:50;;;;;;;;;;;;;;;21.93;23.96;96504.06;5063345;28;650;-73
2021/03/22 09:19:16;;;;;;;;;;;;;;;21.75;24.28;96511.41;5063185;28;607;-75
2021/03/22 09:21:48;;;;;;;;;;;;;;;22.22;23.61;96518.31;5062879;28;1004;-75
2021/03/22 09:24:32;;;;;;;;;;;;;;;22.57;23.30;96503.50;5062653;28;927;-75
2021/03/22 09:26:58;;;;;;;;;;;;;;;22.65;23.17;96503.94;5063021;28;662;-75
2021/03/22 09:29:24;;;;;;;;;;;;;;;22.40;23.35;96510.94;5062520;28;1902;-75
2021/03/22 09:31:50;;;;;;;;;;;;;;;22.19;23.45;96501.53;5063245;28;618;-75
2021/03/22 09:34:15;;;;;;;;;;;;;;;21.97;23.63;96501.81;5045412;28;663;-75
2021/03/22 09:36:48;;;;;;;;;;;;;;;21.90;24.11;96502.97;5062466;28;901;-75
2021/03/22 09:39:13;;;;;;;;;;;;;;;22.34;23.44;96503.09;5062312;28;904;-75
2021/03/22 09:41:57;;;;;;;;;;;;;;;22.57;23.00;96503.50;5062790;28;905;-75
2021/03/22 09:44:25;;;;;;;;;;;;;;;22.73;22.68;96517.22;5062544;28;714;-75
2021/03/22 09:47:03;;;;;;;;;;;;;;;22.18;23.52;96512.06;5062499;28;945;-75
2021/03/22 09:49:29;;;;;;;;;;;;;;;21.90;23.87;96508.63;5062229;28;1890;-74
2021/03/22 09:52:14;;;;;;;;;;;;;;;21.76;23.67;96498.81;5045339;28;659;-75
2021/03/22 09:54:41;;;;;;;;;;;;;;;22.15;23.65;96517.91;5062043;28;870;-75
2021/03/22 09:57:11;;;;;;;;;;;;;;;22.44;23.16;96517.97;5045027;28;969;-75
2021/03/22 09:59:38;;;;;;;;;;;;;;;22.62;22.85;96512.13;5044967;28;657;-75
2021/03/22 10:02:22;;;;;;;;;;;;;;;22.47;22.84;96521.88;5059673;28;987;-75
2021/03/22 10:05:21;;;;;;;;;;;;;;;22.01;23.42;96527.91;5062362;28;670;-75
2021/03/22 10:07:50;;;;;;;;;;;;;;;21.77;23.85;96528.69;5018666;28;1033;-75
2021/03/22 10:10:19;;;;;;;;;;;;;;;22.04;23.61;96529.78;5061979;28;1902;-75
2021/03/22 10:12:48;;;;;;;;;;;;;;;22.59;22.93;96535.78;5061765;28;883;-74
2021/03/22 10:15:14;;;;;;;;;;;;;;;22.87;22.63;96521.31;5044536;28;651;-75
2021/03/22 10:17:47;;;;;;;;;;;;;;;22.26;23.12;96530.25;5062090;28;591;-75
2021/03/22 10:20:18;;;;;;;;;;;;;;;22.02;23.39;96526.63;5062074;28;591;-75
2021/03/22 10:22:44;;;;;;;;;;;;;;;21.78;23.78;96529.47;5061826;28;594;-75
2021/03/22 10:25:11;;;;;;;;;;;;;;;21.95;23.57;96532.66;5061760;28;1039;-75
2021/03/22 10:27:37;;;;;;;;;;;;;;;22.47;23.09;96533.22;5044179;28;1399;-75
2021/03/22 10:30:05;;;;;;;;;;;;;;;22.47;22.88;96528.31;5061468;28;1910;-75
2021/03/22 10:32:31;;;;;;;;;;;;;;;22.54;23.00;96515.84;5061913;28;595;-75
2021/03/22 10:35:22;;;;;;;;;;;;;;;22.17;23.12;96499.16;5061501;28;650;-74
2021/03/22 10:37:52;;;;;;;;;;;;;;;21.74;23.83;96492.84;5057755;28;974;-75
2021/03/22 10:40:20;;;;;;;;;;;;;;;21.62;23.88;96493.09;5043934;28;992;-75
2021/03/22 10:42:46;;;;;;;;;;;;;;;22.22;23.13;96494.88;5061196;28;842;-75
2021/03/22 10:45:31;;;;;;;;;;;;;;;22.55;22.80;96483.38;5061473;28;1034;-75
2021/03/22 10:47:57;;;;;;;;;;;;;;;22.61;22.76;96465.19;5061310;28;615;-75
2021/03/22 10:50:24;;;;;;;;;;;;;;;22.83;22.21;96459.13;5061310;28;1898;-74
2021/03/22 10:53:05;;;;;;;;;;;;;;;22.27;22.92;96452.47;5061451;28;665;-75
2021/03/22 10:55:31;;;;;;;;;;;;;;;21.45;23.97;96444.59;5060861;28;1026;-73
2021/03/22 10:57:57;;;;;;;;;;;;;;;21.87;23.44;96455.03;5060887;28;914;-73
2021/03/22 11:00:28;;;;;;;;;;;;;;;22.45;22.95;96442.25;5061110;28;805;-74
2021/03/22 11:02:54;;;;;;;;;;;;;;;22.20;22.92;96440.75;5061022;28;928;-75
2021/03/22 11:05:19;;;;;;;;;;;;;;;21.43;24.04;96435.84;5061052;28;619;-76
2021/03/22 11:07:59;;;;;;;;;;;;;;;22.50;22.68;96430.22;5061100;28;644;-75
2021/03/22 11:10:25;;;;;;;;;;;;;;;22.50;22.75;96424.56;5060759;28;1971;-75
2021/03/22 11:12:50;;;;;;;;;;;;;;;22.66;22.38;96431.78;5043312;28;870;-75
2021/03/22 11:15:51;;;;;;;;;;;;;;;22.53;22.45;96418.66;5027550;28;1688;-75
2021/03/22 11:18:18;;;;;;;;;;;;;;;22.00;22.98;96410.22;4980633;28;1139;-75
2021/03/22 11:20:43;;;;;;;;;;;;;;;21.82;23.58;96417.63;5044523;28;864;-73
2021/03/22 11:23:13;;;;;;;;;;;;;;;21.88;23.44;96425.44;5043298;28;607;-75
2021/03/22 11:25:38;;;;;;;;;;;;;;;22.69;22.32;96425.09;5060568;28;1066;-75
2021/03/22 11:28:13;;;;;;;;;;;;;;;23.06;21.99;96420.59;5042217;28;922;-75
2021/03/22 11:30:39;;;;;;;;;;;;;;;22.07;23.13;96416.28;5060756;28;1985;-75
2021/03/22 11:33:09;;;;;;;;;;;;;;;21.68;23.60;96407.03;5060634;28;638;-75
2021/03/22 11:35:34;;;;;;;;;;;;;;;21.98;23.15;96407.09;5043886;28;1230;-75
2021/03/22 11:38:02;;;;;;;;;;;;;;;21.99;23.27;96419.97;5060626;28;634;-75
2021/03/22 11:40:28;;;;;;;;;;;;;;;22.76;22.02;96402.81;5060533;28;985;-75
2021/03/22 11:42:58;;;;;;;;;;;;;;;22.27;22.48;96412.81;5042390;28;900;-75
2021/03/22 11:45:23;;;;;;;;;;;;;;;21.87;23.13;96412.56;5060821;28;873;-75
2021/03/22 11:47:49;;;;;;;;;;;;;;;21.67;23.41;96411.13;5060494;28;822;-75
2021/03/22 11:50:26;;;;;;;;;;;;;;;21.81;23.50;96413.22;5060701;28;1914;-75
2021/03/22 11:53:03;;;;;;;;;;;;;;;22.40;22.52;96415.38;5043241;28;967;-76
2021/03/22 11:55:36;;;;;;;;;;;;;;;23.17;21.57;96402.94;5060682;28;878;-75
2021/03/22 11:58:01;;;;;;;;;;;;;;;22.79;22.05;96401.81;5060718;28;634;-75
2021/03/22 12:00:28;;;;;;;;;;;;;;;22.46;22.42;96404.91;5060993;28;686;-76
2021/03/22 12:02:59;;;;;;;;;;;;;;;22.05;22.96;96389.72;5060967;28;622;-76
2021/03/22 12:05:38;;;;;;;;;;;;;;;21.17;24.17;96388.19;5061379;28;591;-76
2021/03/22 12:08:23;;;;;;;;;;;;;;;22.08;23.48;96394.41;5060218;28;1122;-76
2021/03/22 12:10:48;;;;;;;;;;;;;;;22.93;21.92;96390.97;5060886;28;1969;-75
2021/03/22 12:13:13;;;;;;;;;;;;;;;22.30;22.36;96397.66;5060638;28;611;-76
2021/03/22 12:15:39;;;;;;;;;;;;;;;22.11;22.81;96401.94;5061056;28;689;-75
2021/03/22 12:18:05;;;;;;;;;;;;;;;21.81;23.06;96404.72;5060519;28;714;-76
2021/03/22 12:20:31;;;;;;;;;;;;;;;21.68;23.62;96424.00;5060653;28;639;-75
2021/03/22 12:22:57;;;;;;;;;;;;;;;22.59;22.58;96435.78;5060257;28;839;-76
2021/03/22 12:25:23;;;;;;;;;;;;;;;22.63;21.85;96461.88;5060480;28;947;-75
2021/03/22 12:27:50;;;;;;;;;;;;;;;22.12;22.77;96450.88;5060487;28;933;-75
2021/03/22 12:30:16;;;;;;;;;;;;;;;22.00;22.78;96467.63;5060856;28;1910;-76
2021/03/22 12:32:41;;;;;;;;;;;;;;;21.85;23.25;96461.16;5061231;28;692;-76
2021/03/22 12:35:08;;;;;;;;;;;;;;;21.91;23.27;96458.44;5060422;28;595;-76
2021/03/22 12:37:36;;;;;;;;;;;;;;;21.95;23.12;96453.38;5060734;28;840;-75
2021/03/22 12:40:03;;;;;;;;;;;;;;;22.53;22.25;96458.34;5063158;28;994;-76
2021/03/22 12:42:28;;;;;;;;;;;;;;;22.58;22.15;96468.22;5064695;28;999;-76
2021/03/22 12:44:54;;;;;;;;;;;;;;;22.62;22.19;96466.75;5047447;28;611;-76
2021/03/22 12:47:23;;;;;;;;;;;;;;;22.42;22.12;96463.81;5064943;28;583;-75
2021/03/22 12:49:49;;;;;;;;;;;;;;;22.24;22.51;96452.69;5063723;28;1964;-75
2021/03/22 12:52:14;;;;;;;;;;;;;;;21.95;22.90;96448.47;5064339;28;912;-76
2021/03/22 12:54:40;;;;;;;;;;;;;;;21.56;23.48;96456.19;5063757;28;853;-76
2021/03/22 12:57:05;;;;;;;;;;;;;;;22.03;22.94;96451.75;5064517;28;834;-76
2021/03/22 12:59:35;;;;;;;;;;;;;;;21.63;23.39;96450.16;5063938;28;702;-76
2021/03/22 13:02:01;;;;;;;;;;;;;;;21.98;22.75;96443.91;5046874;28;694;-76
2021/03/22 13:04:27;;;;;;;;;;;;;;;21.98;22.81;96435.41;5063646;28;677;-75
2021/03/22 13:06:52;;;;;;;;;;;;;;;21.65;23.32;96435.50;5063811;28;901;-76
2021/03/22 13:09:18;;;;;;;;;;;;;;;21.98;23.17;96432.59;5063237;28;1965;-75
2021/03/22 13:11:43;;;;;;;;;;;;;;;22.74;21.96;96422.38;5064399;28;996;-75
2021/03/22 13:14:13;;;;;;;;;;;;;;;22.64;21.98;96429.44;5063411;28;603;-76
2021/03/22 13:16:39;;;;;;;;;;;;;;;22.69;21.72;96425.91;5046894;28;715;-76